sensor_id;sensor_type;location;lat;lon;timestamp;temperature;humidity
29453;DHT22;16424;50.956;5.320;2022-08-03T00:01:04;21.80;99.90
29453;DHT22;16424;50.956;5.320;2022-08-03T00:03:30;21.70;99.90
29453;DHT22;16424;50.956;5.320;2022-08-03T00:05:56;21.60;99.90
29453;DHT22;16424;50.956;5.320;2022-08-03T00:08:21;21.50;99.90
29453;DHT22;16424;50.956;5.320;2022-08-03T00:10:47;21.50;99.90
29453;DHT22;16424;50.956;5.320;2022-08-03T00:13:13;21.40;99.90
29453;DHT22;16424;50.956;5.320;2022-08-03T00:15:40;21.30;99.90
29453;DHT22;16424;50.956;5.320;2022-08-03T00:18:06;21.30;99.90
29453;DHT22;16424;50.956;5.320;2022-08-03T00:20:32;21.20;99.90
29453;DHT22;16424;50.956;5.320;2022-08-03T00:22:58;21.10;99.90
29453;DHT22;16424;50.956;5.320;2022-08-03T00:25:23;21.10;99.90
29453;DHT22;16424;50.956;5.320;2022-08-03T00:27:49;21.10;99.90
29453;DHT22;16424;50.956;5.320;2022-08-03T00:30:14;21.00;99.90
29453;DHT22;16424;50.956;5.320;2022-08-03T00:32:40;21.00;99.90
29453;DHT22;16424;50.956;5.320;2022-08-03T00:35:06;21.00;99.90
29453;DHT22;16424;50.956;5.320;2022-08-03T00:37:32;21.00;99.90
29453;DHT22;16424;50.956;5.320;2022-08-03T00:39:57;21.00;99.90
29453;DHT22;16424;50.956;5.320;2022-08-03T00:42:23;21.00;99.90
29453;DHT22;16424;50.956;5.320;2022-08-03T00:44:49;21.10;99.90
29453;DHT22;16424;50.956;5.320;2022-08-03T00:47:14;21.10;99.90
29453;DHT22;16424;50.956;5.320;2022-08-03T00:49:40;21.20;99.90
29453;DHT22;16424;50.956;5.320;2022-08-03T00:52:10;21.20;99.90
29453;DHT22;16424;50.956;5.320;2022-08-03T00:54:38;21.10;99.90
29453;DHT22;16424;50.956;5.320;2022-08-03T00:57:04;21.00;99.90
29453;DHT22;16424;50.956;5.320;2022-08-03T00:59:30;21.00;99.90
29453;DHT22;16424;50.956;5.320;2022-08-03T01:01:56;20.90;99.90
29453;DHT22;16424;50.956;5.320;2022-08-03T01:04:22;20.90;99.90
29453;DHT22;16424;50.956;5.320;2022-08-03T01:07:10;20.80;99.90
29453;DHT22;16424;50.956;5.320;2022-08-03T01:12:54;20.70;99.90
29453;DHT22;16424;50.956;5.320;2022-08-03T01:15:42;20.60;99.90
29453;DHT22;16424;50.956;5.320;2022-08-03T01:18:19;20.60;99.90
29453;DHT22;16424;50.956;5.320;2022-08-03T01:20:54;20.60;99.90
29453;DHT22;16424;50.956;5.320;2022-08-03T01:23:48;20.60;99.90
29453;DHT22;16424;50.956;5.320;2022-08-03T01:32:12;20.50;99.90
29453;DHT22;16424;50.956;5.320;2022-08-03T01:35:01;20.50;99.90
29453;DHT22;16424;50.956;5.320;2022-08-03T01:37:49;20.50;99.90
29453;DHT22;16424;50.956;5.320;2022-08-03T01:40:16;20.40;99.90
29453;DHT22;16424;50.956;5.320;2022-08-03T01:42:44;20.40;99.90
29453;DHT22;16424;50.956;5.320;2022-08-03T01:45:13;20.40;99.90
29453;DHT22;16424;50.956;5.320;2022-08-03T01:47:41;20.40;99.90
29453;DHT22;16424;50.956;5.320;2022-08-03T01:50:09;20.40;99.90
29453;DHT22;16424;50.956;5.320;2022-08-03T01:52:41;20.30;99.90
29453;DHT22;16424;50.956;5.320;2022-08-03T01:55:09;20.30;99.90
29453;DHT22;16424;50.956;5.320;2022-08-03T01:57:37;20.30;99.90
29453;DHT22;16424;50.956;5.320;2022-08-03T02:00:04;20.20;99.90
29453;DHT22;16424;50.956;5.320;2022-08-03T02:02:31;20.20;99.90
29453;DHT22;16424;50.956;5.320;2022-08-03T02:04:59;20.10;99.90
29453;DHT22;16424;50.956;5.320;2022-08-03T02:07:26;20.10;99.90
29453;DHT22;16424;50.956;5.320;2022-08-03T02:09:54;20.10;99.90
29453;DHT22;16424;50.956;5.320;2022-08-03T02:12:22;20.00;99.90
29453;DHT22;16424;50.956;5.320;2022-08-03T02:14:49;20.10;99.90
29453;DHT22;16424;50.956;5.320;2022-08-03T02:17:17;20.00;99.90
29453;DHT22;16424;50.956;5.320;2022-08-03T02:19:44;20.00;99.90
29453;DHT22;16424;50.956;5.320;2022-08-03T02:22:12;20.00;99.90
29453;DHT22;16424;50.956;5.320;2022-08-03T02:24:39;19.90;99.90
29453;DHT22;16424;50.956;5.320;2022-08-03T02:27:09;19.80;99.90
29453;DHT22;16424;50.956;5.320;2022-08-03T02:29:38;19.80;99.90
29453;DHT22;16424;50.956;5.320;2022-08-03T02:32:05;19.80;99.90
29453;DHT22;16424;50.956;5.320;2022-08-03T02:34:34;19.70;99.90
29453;DHT22;16424;50.956;5.320;2022-08-03T02:37:00;19.70;99.90
29453;DHT22;16424;50.956;5.320;2022-08-03T02:39:30;19.70;99.90
29453;DHT22;16424;50.956;5.320;2022-08-03T02:41:59;19.80;99.90
29453;DHT22;16424;50.956;5.320;2022-08-03T02:44:31;19.80;99.90
29453;DHT22;16424;50.956;5.320;2022-08-03T02:47:04;19.70;99.90
29453;DHT22;16424;50.956;5.320;2022-08-03T02:49:30;19.70;99.90
29453;DHT22;16424;50.956;5.320;2022-08-03T02:51:58;19.60;99.90
29453;DHT22;16424;50.956;5.320;2022-08-03T02:54:25;19.60;99.90
29453;DHT22;16424;50.956;5.320;2022-08-03T02:56:53;19.50;99.90
29453;DHT22;16424;50.956;5.320;2022-08-03T02:59:20;19.50;99.90
29453;DHT22;16424;50.956;5.320;2022-08-03T03:01:48;19.50;99.90
29453;DHT22;16424;50.956;5.320;2022-08-03T03:04:14;19.50;99.90
29453;DHT22;16424;50.956;5.320;2022-08-03T03:06:41;19.50;99.90
29453;DHT22;16424;50.956;5.320;2022-08-03T03:09:07;19.50;99.90
29453;DHT22;16424;50.956;5.320;2022-08-03T03:11:35;19.50;99.90
29453;DHT22;16424;50.956;5.320;2022-08-03T03:14:02;19.50;99.90
29453;DHT22;16424;50.956;5.320;2022-08-03T03:16:29;19.40;99.90
29453;DHT22;16424;50.956;5.320;2022-08-03T03:18:56;19.40;99.90
29453;DHT22;16424;50.956;5.320;2022-08-03T03:21:23;19.40;99.90
29453;DHT22;16424;50.956;5.320;2022-08-03T03:23:49;19.30;99.90
29453;DHT22;16424;50.956;5.320;2022-08-03T03:26:16;19.30;99.90
29453;DHT22;16424;50.956;5.320;2022-08-03T03:28:42;19.30;99.90
29453;DHT22;16424;50.956;5.320;2022-08-03T03:31:08;19.30;99.90
29453;DHT22;16424;50.956;5.320;2022-08-03T03:33:35;19.40;99.90
29453;DHT22;16424;50.956;5.320;2022-08-03T03:36:01;19.40;99.90
29453;DHT22;16424;50.956;5.320;2022-08-03T03:38:27;19.40;99.90
29453;DHT22;16424;50.956;5.320;2022-08-03T03:40:53;19.50;99.90
29453;DHT22;16424;50.956;5.320;2022-08-03T03:43:21;19.40;99.90
29453;DHT22;16424;50.956;5.320;2022-08-03T03:45:47;19.40;99.90
29453;DHT22;16424;50.956;5.320;2022-08-03T03:48:13;19.30;99.90
29453;DHT22;16424;50.956;5.320;2022-08-03T03:50:39;19.20;99.90
29453;DHT22;16424;50.956;5.320;2022-08-03T03:53:08;19.20;99.90
29453;DHT22;16424;50.956;5.320;2022-08-03T03:55:35;19.20;99.90
29453;DHT22;16424;50.956;5.320;2022-08-03T03:58:01;19.20;99.90
29453;DHT22;16424;50.956;5.320;2022-08-03T04:00:28;19.20;99.90
29453;DHT22;16424;50.956;5.320;2022-08-03T04:02:55;19.00;99.90
29453;DHT22;16424;50.956;5.320;2022-08-03T04:05:20;19.00;99.90
29453;DHT22;16424;50.956;5.320;2022-08-03T04:08:05;19.00;99.90
29453;DHT22;16424;50.956;5.320;2022-08-03T04:11:14;19.00;99.90
29453;DHT22;16424;50.956;5.320;2022-08-03T04:14:05;19.00;99.90
29453;DHT22;16424;50.956;5.320;2022-08-03T04:16:37;19.10;99.90
29453;DHT22;16424;50.956;5.320;2022-08-03T04:19:08;19.10;99.90
29453;DHT22;16424;50.956;5.320;2022-08-03T04:21:38;19.10;99.90
29453;DHT22;16424;50.956;5.320;2022-08-03T04:24:07;19.00;99.90
29453;DHT22;16424;50.956;5.320;2022-08-03T04:26:36;19.00;99.90
29453;DHT22;16424;50.956;5.320;2022-08-03T04:29:05;19.00;99.90
29453;DHT22;16424;50.956;5.320;2022-08-03T04:31:31;19.00;99.90
29453;DHT22;16424;50.956;5.320;2022-08-03T04:33:58;18.90;99.90
29453;DHT22;16424;50.956;5.320;2022-08-03T04:36:26;18.90;99.90
29453;DHT22;16424;50.956;5.320;2022-08-03T04:39:03;19.00;99.90
29453;DHT22;16424;50.956;5.320;2022-08-03T04:41:30;18.90;99.90
29453;DHT22;16424;50.956;5.320;2022-08-03T04:43:58;18.90;99.90
29453;DHT22;16424;50.956;5.320;2022-08-03T04:46:31;18.90;99.90
29453;DHT22;16424;50.956;5.320;2022-08-03T04:48:59;18.90;99.90
29453;DHT22;16424;50.956;5.320;2022-08-03T04:51:25;19.00;99.90
29453;DHT22;16424;50.956;5.320;2022-08-03T04:53:51;19.00;99.90
29453;DHT22;16424;50.956;5.320;2022-08-03T04:56:16;19.10;99.90
29453;DHT22;16424;50.956;5.320;2022-08-03T04:58:42;19.20;99.90
29453;DHT22;16424;50.956;5.320;2022-08-03T05:01:08;19.20;99.90
29453;DHT22;16424;50.956;5.320;2022-08-03T05:03:34;19.30;99.90
29453;DHT22;16424;50.956;5.320;2022-08-03T05:06:00;19.40;99.90
29453;DHT22;16424;50.956;5.320;2022-08-03T05:08:26;19.40;99.90
29453;DHT22;16424;50.956;5.320;2022-08-03T05:10:52;19.60;99.90
29453;DHT22;16424;50.956;5.320;2022-08-03T05:13:17;19.60;99.90
29453;DHT22;16424;50.956;5.320;2022-08-03T05:15:43;19.70;99.90
29453;DHT22;16424;50.956;5.320;2022-08-03T05:18:09;19.90;99.90
29453;DHT22;16424;50.956;5.320;2022-08-03T05:20:35;20.10;99.90
29453;DHT22;16424;50.956;5.320;2022-08-03T05:23:00;20.30;99.90
29453;DHT22;16424;50.956;5.320;2022-08-03T05:25:28;20.60;99.90
29453;DHT22;16424;50.956;5.320;2022-08-03T05:27:54;21.20;99.90
29453;DHT22;16424;50.956;5.320;2022-08-03T05:30:19;22.30;99.90
29453;DHT22;16424;50.956;5.320;2022-08-03T05:32:45;23.50;99.90
29453;DHT22;16424;50.956;5.320;2022-08-03T05:35:11;24.60;99.90
29453;DHT22;16424;50.956;5.320;2022-08-03T05:37:36;25.60;99.90
29453;DHT22;16424;50.956;5.320;2022-08-03T05:40:03;26.50;99.90
29453;DHT22;16424;50.956;5.320;2022-08-03T05:42:29;27.60;99.90
29453;DHT22;16424;50.956;5.320;2022-08-03T05:44:55;28.30;99.90
29453;DHT22;16424;50.956;5.320;2022-08-03T05:47:21;28.90;99.90
29453;DHT22;16424;50.956;5.320;2022-08-03T05:49:46;29.70;99.90
29453;DHT22;16424;50.956;5.320;2022-08-03T05:52:12;30.30;99.90
29453;DHT22;16424;50.956;5.320;2022-08-03T05:54:38;30.90;99.90
29453;DHT22;16424;50.956;5.320;2022-08-03T05:57:03;31.40;99.90
29453;DHT22;16424;50.956;5.320;2022-08-03T05:59:29;32.10;99.90
29453;DHT22;16424;50.956;5.320;2022-08-03T06:01:55;32.70;99.70
29453;DHT22;16424;50.956;5.320;2022-08-03T06:04:20;32.90;98.90
29453;DHT22;16424;50.956;5.320;2022-08-03T06:06:46;33.30;98.30
29453;DHT22;16424;50.956;5.320;2022-08-03T06:09:12;33.60;97.20
29453;DHT22;16424;50.956;5.320;2022-08-03T06:11:38;34.00;96.00
29453;DHT22;16424;50.956;5.320;2022-08-03T06:14:05;34.40;95.30
29453;DHT22;16424;50.956;5.320;2022-08-03T06:16:31;34.90;94.40
29453;DHT22;16424;50.956;5.320;2022-08-03T06:18:56;35.00;93.60
29453;DHT22;16424;50.956;5.320;2022-08-03T06:21:22;35.30;93.30
29453;DHT22;16424;50.956;5.320;2022-08-03T06:23:47;35.60;92.30
29453;DHT22;16424;50.956;5.320;2022-08-03T06:26:13;35.80;91.60
29453;DHT22;16424;50.956;5.320;2022-08-03T06:28:39;35.90;91.40
29453;DHT22;16424;50.956;5.320;2022-08-03T06:31:05;36.20;91.20
29453;DHT22;16424;50.956;5.320;2022-08-03T06:33:30;36.60;90.20
29453;DHT22;16424;50.956;5.320;2022-08-03T06:35:56;36.70;89.70
29453;DHT22;16424;50.956;5.320;2022-08-03T06:38:22;36.70;88.80
29453;DHT22;16424;50.956;5.320;2022-08-03T06:40:47;36.50;89.20
29453;DHT22;16424;50.956;5.320;2022-08-03T06:43:14;36.60;88.30
29453;DHT22;16424;50.956;5.320;2022-08-03T06:45:40;37.00;87.20
29453;DHT22;16424;50.956;5.320;2022-08-03T06:48:08;37.40;85.50
29453;DHT22;16424;50.956;5.320;2022-08-03T06:50:36;37.50;84.70
29453;DHT22;16424;50.956;5.320;2022-08-03T06:53:03;37.20;84.60
29453;DHT22;16424;50.956;5.320;2022-08-03T06:55:29;37.10;85.40
29453;DHT22;16424;50.956;5.320;2022-08-03T06:57:55;37.40;84.80
29453;DHT22;16424;50.956;5.320;2022-08-03T07:00:20;37.80;84.20
29453;DHT22;16424;50.956;5.320;2022-08-03T07:02:47;38.00;83.20
29453;DHT22;16424;50.956;5.320;2022-08-03T07:05:13;37.90;82.60
29453;DHT22;16424;50.956;5.320;2022-08-03T07:07:39;38.10;82.60
29453;DHT22;16424;50.956;5.320;2022-08-03T07:10:06;36.30;84.00
29453;DHT22;16424;50.956;5.320;2022-08-03T07:12:33;35.00;87.10
29453;DHT22;16424;50.956;5.320;2022-08-03T07:15:00;35.90;86.70
29453;DHT22;16424;50.956;5.320;2022-08-03T07:17:27;36.70;85.30
29453;DHT22;16424;50.956;5.320;2022-08-03T07:19:53;37.60;84.50
29453;DHT22;16424;50.956;5.320;2022-08-03T07:22:18;38.10;82.30
29453;DHT22;16424;50.956;5.320;2022-08-03T07:24:44;38.20;81.90
29453;DHT22;16424;50.956;5.320;2022-08-03T07:27:10;38.30;82.10
29453;DHT22;16424;50.956;5.320;2022-08-03T07:29:36;38.60;81.30
29453;DHT22;16424;50.956;5.320;2022-08-03T07:32:03;38.90;80.40
29453;DHT22;16424;50.956;5.320;2022-08-03T07:34:29;39.20;79.90
29453;DHT22;16424;50.956;5.320;2022-08-03T07:36:55;39.10;78.50
29453;DHT22;16424;50.956;5.320;2022-08-03T07:39:21;38.60;78.40
29453;DHT22;16424;50.956;5.320;2022-08-03T07:41:47;37.70;78.80
29453;DHT22;16424;50.956;5.320;2022-08-03T07:44:18;38.00;79.20
29453;DHT22;16424;50.956;5.320;2022-08-03T07:46:44;37.60;79.70
29453;DHT22;16424;50.956;5.320;2022-08-03T07:49:10;38.10;78.60
29453;DHT22;16424;50.956;5.320;2022-08-03T07:51:35;38.60;77.90
29453;DHT22;16424;50.956;5.320;2022-08-03T07:54:01;39.00;75.70
29453;DHT22;16424;50.956;5.320;2022-08-03T07:56:27;39.40;75.40
29453;DHT22;16424;50.956;5.320;2022-08-03T07:58:54;39.50;74.30
29453;DHT22;16424;50.956;5.320;2022-08-03T08:01:20;39.60;74.20
29453;DHT22;16424;50.956;5.320;2022-08-03T08:03:47;39.70;73.70
29453;DHT22;16424;50.956;5.320;2022-08-03T08:06:14;39.60;72.00
29453;DHT22;16424;50.956;5.320;2022-08-03T08:08:40;39.30;72.60
29453;DHT22;16424;50.956;5.320;2022-08-03T08:11:06;39.30;73.10
29453;DHT22;16424;50.956;5.320;2022-08-03T08:13:32;38.90;74.00
29453;DHT22;16424;50.956;5.320;2022-08-03T08:15:58;39.20;74.40
29453;DHT22;16424;50.956;5.320;2022-08-03T08:18:24;39.50;72.80
29453;DHT22;16424;50.956;5.320;2022-08-03T08:20:50;40.00;71.50
29453;DHT22;16424;50.956;5.320;2022-08-03T08:23:16;40.10;71.00
29453;DHT22;16424;50.956;5.320;2022-08-03T08:25:47;39.90;72.00
29453;DHT22;16424;50.956;5.320;2022-08-03T08:28:16;39.60;70.80
29453;DHT22;16424;50.956;5.320;2022-08-03T08:30:41;39.60;71.20
29453;DHT22;16424;50.956;5.320;2022-08-03T08:33:07;39.40;70.60
29453;DHT22;16424;50.956;5.320;2022-08-03T08:35:33;39.60;71.00
29453;DHT22;16424;50.956;5.320;2022-08-03T08:37:59;40.00;70.30
29453;DHT22;16424;50.956;5.320;2022-08-03T08:40:26;40.10;69.50
29453;DHT22;16424;50.956;5.320;2022-08-03T08:42:52;40.50;69.20
29453;DHT22;16424;50.956;5.320;2022-08-03T08:45:18;40.70;68.70
29453;DHT22;16424;50.956;5.320;2022-08-03T08:47:45;40.40;69.10
29453;DHT22;16424;50.956;5.320;2022-08-03T08:50:11;40.00;69.30
29453;DHT22;16424;50.956;5.320;2022-08-03T08:52:40;39.80;69.30
29453;DHT22;16424;50.956;5.320;2022-08-03T08:55:12;39.80;69.30
29453;DHT22;16424;50.956;5.320;2022-08-03T08:57:44;40.00;68.90
29453;DHT22;16424;50.956;5.320;2022-08-03T09:00:11;39.20;70.40
29453;DHT22;16424;50.956;5.320;2022-08-03T09:02:39;39.20;70.80
29453;DHT22;16424;50.956;5.320;2022-08-03T09:05:13;39.60;69.50
29453;DHT22;16424;50.956;5.320;2022-08-03T09:07:41;39.40;69.70
29453;DHT22;16424;50.956;5.320;2022-08-03T09:10:08;39.00;70.40
29453;DHT22;16424;50.956;5.320;2022-08-03T09:12:41;39.10;70.00
29453;DHT22;16424;50.956;5.320;2022-08-03T09:15:26;38.90;70.30
29453;DHT22;16424;50.956;5.320;2022-08-03T09:17:54;38.40;70.30
29453;DHT22;16424;50.956;5.320;2022-08-03T09:20:21;38.30;70.80
29453;DHT22;16424;50.956;5.320;2022-08-03T09:23:04;38.10;71.30
29453;DHT22;16424;50.956;5.320;2022-08-03T09:25:37;37.80;71.70
29453;DHT22;16424;50.956;5.320;2022-08-03T09:28:08;37.50;71.90
29453;DHT22;16424;50.956;5.320;2022-08-03T09:30:35;36.80;73.30
29453;DHT22;16424;50.956;5.320;2022-08-03T09:33:03;37.20;73.50
29453;DHT22;16424;50.956;5.320;2022-08-03T09:35:29;36.50;73.60
29453;DHT22;16424;50.956;5.320;2022-08-03T09:38:27;36.00;73.30
29453;DHT22;16424;50.956;5.320;2022-08-03T09:40:54;35.50;74.40
29453;DHT22;16424;50.956;5.320;2022-08-03T09:43:20;35.30;75.90
29453;DHT22;16424;50.956;5.320;2022-08-03T09:45:47;35.20;75.60
29453;DHT22;16424;50.956;5.320;2022-08-03T09:48:31;35.00;76.10
29453;DHT22;16424;50.956;5.320;2022-08-03T09:51:02;34.50;76.40
29453;DHT22;16424;50.956;5.320;2022-08-03T09:53:28;34.50;76.40
29453;DHT22;16424;50.956;5.320;2022-08-03T09:58:24;34.10;77.20
29453;DHT22;16424;50.956;5.320;2022-08-03T10:03:20;33.50;78.30
29453;DHT22;16424;50.956;5.320;2022-08-03T10:05:46;33.50;79.20
29453;DHT22;16424;50.956;5.320;2022-08-03T10:08:14;33.70;79.30
29453;DHT22;16424;50.956;5.320;2022-08-03T10:10:42;33.70;77.70
29453;DHT22;16424;50.956;5.320;2022-08-03T10:13:10;33.70;78.10
29453;DHT22;16424;50.956;5.320;2022-08-03T10:15:38;33.60;77.60
29453;DHT22;16424;50.956;5.320;2022-08-03T10:18:04;33.30;79.00
29453;DHT22;16424;50.956;5.320;2022-08-03T10:20:32;33.30;78.80
29453;DHT22;16424;50.956;5.320;2022-08-03T10:23:01;33.40;78.30
29453;DHT22;16424;50.956;5.320;2022-08-03T10:25:29;33.00;79.50
29453;DHT22;16424;50.956;5.320;2022-08-03T10:27:55;33.00;79.40
29453;DHT22;16424;50.956;5.320;2022-08-03T10:30:23;33.00;79.40
29453;DHT22;16424;50.956;5.320;2022-08-03T10:32:54;33.00;79.50
29453;DHT22;16424;50.956;5.320;2022-08-03T10:35:24;33.10;80.30
29453;DHT22;16424;50.956;5.320;2022-08-03T10:38:03;33.10;79.80
29453;DHT22;16424;50.956;5.320;2022-08-03T10:40:31;33.00;79.70
29453;DHT22;16424;50.956;5.320;2022-08-03T10:43:06;32.90;79.80
29453;DHT22;16424;50.956;5.320;2022-08-03T10:45:33;32.80;79.50
29453;DHT22;16424;50.956;5.320;2022-08-03T10:48:00;32.60;80.40
29453;DHT22;16424;50.956;5.320;2022-08-03T10:50:27;32.90;80.30
29453;DHT22;16424;50.956;5.320;2022-08-03T10:53:00;33.00;80.10
29453;DHT22;16424;50.956;5.320;2022-08-03T10:55:37;32.80;80.00
29453;DHT22;16424;50.956;5.320;2022-08-03T11:01:07;32.80;81.60
29453;DHT22;16424;50.956;5.320;2022-08-03T11:03:33;32.40;80.50
29453;DHT22;16424;50.956;5.320;2022-08-03T11:06:20;32.40;82.20
29453;DHT22;16424;50.956;5.320;2022-08-03T11:08:47;32.50;83.00
29453;DHT22;16424;50.956;5.320;2022-08-03T11:16:22;32.80;81.50
29453;DHT22;16424;50.956;5.320;2022-08-03T11:18:59;33.00;81.00
29453;DHT22;16424;50.956;5.320;2022-08-03T11:42:59;33.90;80.20
29453;DHT22;16424;50.956;5.320;2022-08-03T11:45:24;33.90;80.40
29453;DHT22;16424;50.956;5.320;2022-08-03T11:47:53;34.00;79.80
29453;DHT22;16424;50.956;5.320;2022-08-03T11:50:19;34.10;79.90
29453;DHT22;16424;50.956;5.320;2022-08-03T11:52:46;34.00;80.60
29453;DHT22;16424;50.956;5.320;2022-08-03T11:55:13;34.10;80.30
29453;DHT22;16424;50.956;5.320;2022-08-03T11:57:39;34.10;80.60
29453;DHT22;16424;50.956;5.320;2022-08-03T12:00:27;33.90;79.90
29453;DHT22;16424;50.956;5.320;2022-08-03T12:10:54;33.90;80.10
29453;DHT22;16424;50.956;5.320;2022-08-03T12:13:20;33.70;79.60
29453;DHT22;16424;50.956;5.320;2022-08-03T12:15:52;33.80;80.40
29453;DHT22;16424;50.956;5.320;2022-08-03T12:18:18;33.90;79.50
29453;DHT22;16424;50.956;5.320;2022-08-03T12:20:45;33.60;80.60
29453;DHT22;16424;50.956;5.320;2022-08-03T12:23:12;33.40;80.40
29453;DHT22;16424;50.956;5.320;2022-08-03T12:25:39;33.40;80.40
29453;DHT22;16424;50.956;5.320;2022-08-03T12:30:32;33.90;79.90
29453;DHT22;16424;50.956;5.320;2022-08-03T12:32:58;33.60;80.80
29453;DHT22;16424;50.956;5.320;2022-08-03T12:35:24;33.70;80.50
29453;DHT22;16424;50.956;5.320;2022-08-03T12:37:50;33.80;80.10
29453;DHT22;16424;50.956;5.320;2022-08-03T12:40:24;33.90;80.00
29453;DHT22;16424;50.956;5.320;2022-08-03T12:42:51;33.90;79.70
29453;DHT22;16424;50.956;5.320;2022-08-03T12:45:35;34.20;79.10
29453;DHT22;16424;50.956;5.320;2022-08-03T12:48:01;34.20;80.10
29453;DHT22;16424;50.956;5.320;2022-08-03T12:52:55;34.30;79.60
29453;DHT22;16424;50.956;5.320;2022-08-03T12:55:22;34.40;79.10
29453;DHT22;16424;50.956;5.320;2022-08-03T12:57:48;34.50;78.30
29453;DHT22;16424;50.956;5.320;2022-08-03T13:00:16;34.30;78.10
29453;DHT22;16424;50.956;5.320;2022-08-03T13:02:42;34.20;77.90
29453;DHT22;16424;50.956;5.320;2022-08-03T13:05:10;33.70;79.30
29453;DHT22;16424;50.956;5.320;2022-08-03T13:07:43;33.90;79.20
29453;DHT22;16424;50.956;5.320;2022-08-03T13:10:09;34.30;78.60
29453;DHT22;16424;50.956;5.320;2022-08-03T13:12:48;34.20;78.10
29453;DHT22;16424;50.956;5.320;2022-08-03T13:15:14;34.30;78.00
29453;DHT22;16424;50.956;5.320;2022-08-03T13:17:41;34.20;78.60
29453;DHT22;16424;50.956;5.320;2022-08-03T13:20:07;34.30;78.50
29453;DHT22;16424;50.956;5.320;2022-08-03T13:22:33;34.30;77.30
29453;DHT22;16424;50.956;5.320;2022-08-03T13:24:59;34.50;77.70
29453;DHT22;16424;50.956;5.320;2022-08-03T13:27:29;34.60;77.30
29453;DHT22;16424;50.956;5.320;2022-08-03T13:29:55;34.70;77.30
29453;DHT22;16424;50.956;5.320;2022-08-03T13:32:22;34.60;78.20
29453;DHT22;16424;50.956;5.320;2022-08-03T13:34:48;34.80;77.10
29453;DHT22;16424;50.956;5.320;2022-08-03T13:37:14;34.90;76.30
29453;DHT22;16424;50.956;5.320;2022-08-03T13:39:40;35.10;76.10
29453;DHT22;16424;50.956;5.320;2022-08-03T13:42:07;35.40;75.60
29453;DHT22;16424;50.956;5.320;2022-08-03T13:44:33;35.20;75.70
29453;DHT22;16424;50.956;5.320;2022-08-03T13:47:01;35.10;75.90
29453;DHT22;16424;50.956;5.320;2022-08-03T13:49:27;35.00;76.30
29453;DHT22;16424;50.956;5.320;2022-08-03T13:51:54;34.70;76.30
29453;DHT22;16424;50.956;5.320;2022-08-03T13:54:20;34.60;76.60
29453;DHT22;16424;50.956;5.320;2022-08-03T13:56:45;34.60;77.30
29453;DHT22;16424;50.956;5.320;2022-08-03T13:59:18;34.70;77.10
29453;DHT22;16424;50.956;5.320;2022-08-03T14:01:45;34.90;77.30
29453;DHT22;16424;50.956;5.320;2022-08-03T14:04:11;35.00;76.80
29453;DHT22;16424;50.956;5.320;2022-08-03T14:06:36;35.20;76.20
29453;DHT22;16424;50.956;5.320;2022-08-03T14:09:02;35.10;76.60
29453;DHT22;16424;50.956;5.320;2022-08-03T14:11:28;35.00;77.00
29453;DHT22;16424;50.956;5.320;2022-08-03T14:13:53;35.00;76.20
29453;DHT22;16424;50.956;5.320;2022-08-03T14:16:19;34.90;76.30
29453;DHT22;16424;50.956;5.320;2022-08-03T14:18:45;35.00;76.40
29453;DHT22;16424;50.956;5.320;2022-08-03T14:21:11;34.90;75.50
29453;DHT22;16424;50.956;5.320;2022-08-03T14:23:37;35.00;76.10
29453;DHT22;16424;50.956;5.320;2022-08-03T14:26:06;34.60;75.60
29453;DHT22;16424;50.956;5.320;2022-08-03T14:28:32;34.70;76.00
29453;DHT22;16424;50.956;5.320;2022-08-03T14:30:58;34.80;74.70
29453;DHT22;16424;50.956;5.320;2022-08-03T14:33:24;34.90;75.20
29453;DHT22;16424;50.956;5.320;2022-08-03T14:35:50;34.40;75.20
29453;DHT22;16424;50.956;5.320;2022-08-03T14:38:16;34.10;76.20
29453;DHT22;16424;50.956;5.320;2022-08-03T14:40:42;34.30;76.10
29453;DHT22;16424;50.956;5.320;2022-08-03T14:43:08;34.60;76.30
29453;DHT22;16424;50.956;5.320;2022-08-03T14:45:34;34.70;74.40
29453;DHT22;16424;50.956;5.320;2022-08-03T14:47:59;34.80;75.20
29453;DHT22;16424;50.956;5.320;2022-08-03T14:50:26;35.00;73.80
29453;DHT22;16424;50.956;5.320;2022-08-03T14:52:53;35.20;73.50
29453;DHT22;16424;50.956;5.320;2022-08-03T14:55:19;35.30;74.00
29453;DHT22;16424;50.956;5.320;2022-08-03T14:57:45;35.40;72.40
29453;DHT22;16424;50.956;5.320;2022-08-03T15:00:11;35.60;72.60
29453;DHT22;16424;50.956;5.320;2022-08-03T15:02:36;35.70;72.60
29453;DHT22;16424;50.956;5.320;2022-08-03T15:05:02;35.60;73.90
29453;DHT22;16424;50.956;5.320;2022-08-03T15:07:28;35.20;74.30
29453;DHT22;16424;50.956;5.320;2022-08-03T15:09:53;35.20;75.60
29453;DHT22;16424;50.956;5.320;2022-08-03T15:12:19;35.10;74.50
29453;DHT22;16424;50.956;5.320;2022-08-03T15:14:45;35.00;74.70
29453;DHT22;16424;50.956;5.320;2022-08-03T15:17:11;35.00;74.10
29453;DHT22;16424;50.956;5.320;2022-08-03T15:19:37;35.00;73.70
29453;DHT22;16424;50.956;5.320;2022-08-03T15:22:02;35.00;73.40
29453;DHT22;16424;50.956;5.320;2022-08-03T15:24:28;34.90;75.60
29453;DHT22;16424;50.956;5.320;2022-08-03T15:26:54;34.80;74.80
29453;DHT22;16424;50.956;5.320;2022-08-03T15:29:19;34.70;74.80
29453;DHT22;16424;50.956;5.320;2022-08-03T15:31:45;35.00;74.60
29453;DHT22;16424;50.956;5.320;2022-08-03T15:34:10;35.10;73.70
29453;DHT22;16424;50.956;5.320;2022-08-03T15:36:37;35.30;74.70
29453;DHT22;16424;50.956;5.320;2022-08-03T15:39:03;35.30;75.50
29453;DHT22;16424;50.956;5.320;2022-08-03T15:41:29;35.50;74.60
29453;DHT22;16424;50.956;5.320;2022-08-03T15:43:54;35.40;73.60
29453;DHT22;16424;50.956;5.320;2022-08-03T15:46:20;35.30;73.30
29453;DHT22;16424;50.956;5.320;2022-08-03T15:48:46;35.20;73.10
29453;DHT22;16424;50.956;5.320;2022-08-03T15:51:11;35.20;73.70
29453;DHT22;16424;50.956;5.320;2022-08-03T15:53:37;35.10;73.30
29453;DHT22;16424;50.956;5.320;2022-08-03T15:56:04;35.30;73.50
29453;DHT22;16424;50.956;5.320;2022-08-03T15:58:32;35.50;73.20
29453;DHT22;16424;50.956;5.320;2022-08-03T16:00:58;35.60;72.30
29453;DHT22;16424;50.956;5.320;2022-08-03T16:03:24;35.60;72.60
29453;DHT22;16424;50.956;5.320;2022-08-03T16:05:53;35.70;71.90
29453;DHT22;16424;50.956;5.320;2022-08-03T16:08:18;35.60;72.00
29453;DHT22;16424;50.956;5.320;2022-08-03T16:10:45;35.60;72.60
29453;DHT22;16424;50.956;5.320;2022-08-03T16:13:11;35.60;72.80
29453;DHT22;16424;50.956;5.320;2022-08-03T16:15:37;35.30;72.90
29453;DHT22;16424;50.956;5.320;2022-08-03T16:18:04;35.20;73.60
29453;DHT22;16424;50.956;5.320;2022-08-03T16:20:30;35.30;73.40
29453;DHT22;16424;50.956;5.320;2022-08-03T16:22:55;35.40;73.00
29453;DHT22;16424;50.956;5.320;2022-08-03T16:25:21;35.30;72.80
29453;DHT22;16424;50.956;5.320;2022-08-03T16:27:47;35.20;73.20
29453;DHT22;16424;50.956;5.320;2022-08-03T16:30:13;35.20;73.10